Time;durP1;ratioP1;P1;durP2;ratioP2;P2;SDS_P1;SDS_P2;PMS_P1;PMS_P2;Temp;Humidity;BMP_temperature;BMP_pressure;BME280_temperature;BME280_humidity;BME280_pressure;Samples;Min_cycle;Max_cycle;Signal;HPM_P1;HPM_P2
2023/05/31 00:02:00;;;;;;;2.73;1.97;;;;;;;20.09;34.77;97746.59;5026256;28;20271;-70
2023/05/31 00:04:26;;;;;;;3.77;1.93;;;;;;;20.04;34.00;97749.00;5019577;28;20199;-69
2023/05/31 00:06:51;;;;;;;3.83;2.37;;;;;;;20.04;34.22;97752.47;5010308;28;20280;-70
2023/05/31 00:09:17;;;;;;;5.03;2.53;;;;;;;20.01;34.54;97749.41;5020922;28;20177;-71
2023/05/31 00:11:42;;;;;;;4.70;2.77;;;;;;;19.97;34.71;97742.84;5022351;28;20601;-71
2023/05/31 00:14:07;;;;;;;8.40;2.47;;;;;;;19.84;35.49;97735.59;5011358;28;20215;-70
2023/05/31 00:16:33;;;;;;;9.80;2.57;;;;;;;19.82;34.48;97745.63;5019532;28;20227;-70
2023/05/31 00:18:59;;;;;;;4.93;2.47;;;;;;;19.77;34.72;97748.88;5019191;28;20199;-71
2023/05/31 00:21:24;;;;;;;6.87;2.40;;;;;;;19.74;35.68;97739.47;5017622;28;20234;-70
2023/05/31 00:23:50;;;;;;;5.63;2.43;;;;;;;19.64;35.50;97752.31;5013388;28;20224;-70
2023/05/31 00:26:15;;;;;;;3.03;2.37;;;;;;;19.62;36.19;97741.03;5017534;28;20203;-70
2023/05/31 00:28:40;;;;;;;3.30;2.20;;;;;;;19.56;36.10;97744.47;5015545;28;20228;-72
2023/05/31 00:31:06;;;;;;;4.23;2.47;;;;;;;19.51;35.84;97738.94;5011492;28;20275;-69
2023/05/31 00:33:31;;;;;;;6.60;2.57;;;;;;;19.53;35.47;97739.56;5012409;28;20339;-69
2023/05/31 00:35:57;;;;;;;5.43;2.83;;;;;;;19.54;36.00;97738.53;5024578;28;20354;-71
2023/05/31 00:38:22;;;;;;;2.83;2.20;;;;;;;19.41;36.78;97740.09;5017919;28;20234;-71
2023/05/31 00:40:47;;;;;;;4.43;2.23;;;;;;;19.31;36.50;97735.16;5021886;28;20275;-71
2023/05/31 00:43:13;;;;;;;8.07;2.57;;;;;;;19.13;36.98;97738.31;5015558;28;20230;-70
2023/05/31 00:45:38;;;;;;;3.40;2.53;;;;;;;19.10;37.13;97738.72;5026584;28;20552;-70
2023/05/31 00:48:04;;;;;;;5.73;2.50;;;;;;;19.10;37.21;97738.72;5023379;28;20183;-72
2023/05/31 00:50:30;;;;;;;3.57;2.40;;;;;;;19.06;37.47;97739.28;5013985;28;20227;-72
2023/05/31 00:52:57;;;;;;;5.30;2.90;;;;;;;18.90;37.42;97743.84;5020249;28;20228;-72
2023/05/31 00:55:23;;;;;;;4.40;2.43;;;;;;;18.90;37.70;97732.41;5021653;28;20427;-71
2023/05/31 00:57:50;;;;;;;2.97;2.23;;;;;;;18.90;37.74;97727.91;5023386;28;20414;-71
2023/05/31 01:00:16;;;;;;;3.60;2.43;;;;;;;18.98;37.18;97727.78;5015350;28;20426;-70
2023/05/31 01:02:41;;;;;;;6.67;2.70;;;;;;;18.97;37.17;97728.78;5014785;28;20497;-71
2023/05/31 01:05:07;;;;;;;5.93;2.20;;;;;;;18.87;37.89;97733.59;5015742;28;20186;-71
2023/05/31 01:07:33;;;;;;;3.90;2.60;;;;;;;18.84;37.07;97744.59;5028677;28;20180;-72
2023/05/31 01:10:00;;;;;;;6.50;2.60;;;;;;;18.78;37.00;97740.88;5019031;28;20986;-71
2023/05/31 01:12:37;;;;;;;5.40;2.60;;;;;;;18.83;36.81;97743.78;5015073;28;20288;-70
2023/05/31 01:15:32;;;;;;;3.00;2.30;;;;;;;18.82;36.35;97736.84;5017100;28;20457;-70
2023/05/31 01:18:03;;;;;;;2.80;2.30;;;;;;;18.83;36.60;97742.97;5017105;28;20473;-72
2023/05/31 01:20:34;;;;;;;6.03;2.40;;;;;;;18.89;36.30;97742.19;5020033;28;20455;-71
2023/05/31 01:23:08;;;;;;;4.10;2.40;;;;;;;18.82;36.62;97742.16;5013583;28;20452;-70
2023/05/31 01:25:48;;;;;;;7.77;2.70;;;;;;;18.87;36.01;97739.75;5012990;28;20863;-71
2023/05/31 01:28:14;;;;;;;4.67;2.30;;;;;;;18.82;35.38;97742.16;5013652;28;20434;-70
2023/05/31 01:30:40;;;;;;;5.10;2.50;;;;;;;18.83;35.35;97733.16;5008583;28;20986;-71
2023/05/31 01:33:12;;;;;;;3.10;2.10;;;;;;;18.83;35.52;97735.81;5010786;28;20847;-71
2023/05/31 01:35:38;;;;;;;3.80;2.97;;;;;;;18.76;37.23;97737.63;5022522;28;20426;-70
2023/05/31 01:38:03;;;;;;;5.00;2.73;;;;;;;18.60;37.71;97738.69;5015184;28;20426;-71
2023/05/31 01:40:29;;;;;;;3.67;2.30;;;;;;;18.62;37.28;97738.50;5020293;28;20889;-71
2023/05/31 01:42:55;;;;;;;5.33;2.40;;;;;;;18.57;36.91;97737.25;5015909;28;20203;-70
2023/05/31 01:45:21;;;;;;;8.93;2.80;;;;;;;18.52;37.27;97737.00;5016046;28;20420;-72
2023/05/31 01:47:48;;;;;;;9.73;2.70;;;;;;;18.40;37.05;97733.19;5014649;28;20274;-70
2023/05/31 01:50:14;;;;;;;10.50;2.73;;;;;;;18.49;36.65;97742.69;5016748;28;20836;-70
2023/05/31 01:52:40;;;;;;;6.23;2.80;;;;;;;18.44;37.19;97739.78;5009866;28;20458;-71
2023/05/31 01:55:06;;;;;;;4.20;3.00;;;;;;;18.44;37.24;97738.97;5015258;28;20204;-71
2023/05/31 01:57:33;;;;;;;5.70;2.50;;;;;;;18.35;38.43;97738.25;5015895;28;20423;-70
2023/05/31 01:59:59;;;;;;;6.87;2.70;;;;;;;18.36;37.78;97746.03;5005622;28;20439;-71
2023/05/31 02:02:25;;;;;;;3.73;2.57;;;;;;;18.39;38.25;97742.19;5008489;28;20443;-69
2023/05/31 02:04:51;;;;;;;5.53;2.50;;;;;;;18.41;38.06;97745.44;5006722;28;20836;-71
2023/05/31 02:07:17;;;;;;;3.73;2.43;;;;;;;18.33;39.12;97742.94;5010392;28;20555;-70
2023/05/31 02:09:42;;;;;;;3.83;2.27;;;;;;;18.17;39.11;97750.09;5013251;28;20438;-72
2023/05/31 02:12:08;;;;;;;5.10;2.40;;;;;;;18.16;39.26;97753.78;5007483;28;20211;-71
2023/05/31 02:14:33;;;;;;;3.50;2.40;;;;;;;18.15;39.21;97752.13;5010797;28;20208;-71
2023/05/31 02:16:58;;;;;;;17.90;2.53;;;;;;;18.10;39.18;97751.88;5007086;28;20208;-71
2023/05/31 02:19:25;;;;;;;2.80;2.03;;;;;;;18.03;39.61;97748.31;5008537;28;20255;-70
2023/05/31 02:21:52;;;;;;;9.40;2.60;;;;;;;18.02;39.65;97749.34;5016187;28;20181;-71
2023/05/31 02:24:17;;;;;;;3.77;2.30;;;;;;;18.01;39.79;97745.06;4983066;28;20879;-71
2023/05/31 02:26:43;;;;;;;5.20;2.57;;;;;;;17.95;39.97;97746.59;5010602;28;20431;-71
2023/05/31 02:29:09;;;;;;;6.50;2.43;;;;;;;17.87;40.22;97752.81;5011239;28;20247;-71
2023/05/31 02:31:34;;;;;;;4.47;2.40;;;;;;;17.83;40.19;97746.25;5011468;28;20196;-71
2023/05/31 02:34:00;;;;;;;3.67;2.60;;;;;;;17.83;40.32;97750.72;5009796;28;20447;-71
2023/05/31 02:36:28;;;;;;;6.50;2.60;;;;;;;17.83;40.53;97743.59;5012587;28;20664;-70
2023/05/31 02:38:54;;;;;;;2.80;2.33;;;;;;;17.84;40.65;97745.22;5019670;28;20191;-72
2023/05/31 02:41:19;;;;;;;4.63;2.10;;;;;;;17.79;40.41;97747.59;5011101;28;20447;-72
2023/05/31 02:43:44;;;;;;;2.30;2.07;;;;;;;17.80;40.65;97738.66;5011497;28;20206;-70
2023/05/31 02:46:10;;;;;;;3.50;2.47;;;;;;;17.75;40.51;97741.06;5014419;28;20231;-71
2023/05/31 02:48:35;;;;;;;2.87;2.30;;;;;;;17.67;40.91;97741.97;5018111;28;20179;-70
2023/05/31 02:51:01;;;;;;;3.00;2.33;;;;;;;17.65;40.85;97744.78;5010979;28;20271;-70
2023/05/31 02:53:26;;;;;;;3.10;2.70;;;;;;;17.58;41.18;97732.47;5018940;28;20286;-70
2023/05/31 02:55:52;;;;;;;6.80;2.83;;;;;;;17.58;40.96;97735.13;5010893;28;20224;-71
2023/05/31 02:58:18;;;;;;;4.63;2.50;;;;;;;17.50;41.31;97738.69;5010814;28;20200;-70
2023/05/31 03:00:44;;;;;;;5.60;2.07;;;;;;;17.42;41.07;97744.91;5015784;28;20550;-71
2023/05/31 03:03:12;;;;;;;3.67;2.57;;;;;;;17.43;41.26;97737.78;5019779;28;20982;-71
2023/05/31 03:05:38;;;;;;;4.10;2.43;;;;;;;17.40;41.20;97730.19;5023903;28;20812;-70
2023/05/31 03:08:03;;;;;;;6.50;2.77;;;;;;;17.40;41.15;97732.84;5017608;28;20427;-70
2023/05/31 03:10:29;;;;;;;4.10;2.60;;;;;;;17.43;41.18;97743.06;5014240;28;21003;-70
2023/05/31 03:12:54;;;;;;;5.87;2.67;;;;;;;17.18;41.32;97741.53;5013454;28;20209;-71
2023/05/31 03:15:20;;;;;;;8.93;2.87;;;;;;;17.18;41.20;97735.38;5022765;28;20188;-70
2023/05/31 03:17:45;;;;;;;6.93;2.80;;;;;;;17.26;41.39;97737.97;5015120;28;20195;-72
2023/05/31 03:20:11;;;;;;;4.80;2.60;;;;;;;17.25;41.44;97736.31;5002415;28;20653;-71
2023/05/31 03:22:37;;;;;;;5.07;2.63;;;;;;;17.24;41.71;97731.19;4990797;28;20207;-70
2023/05/31 03:25:03;;;;;;;6.63;2.77;;;;;;;17.20;41.83;97741.34;5014443;28;20207;-69
2023/05/31 03:27:30;;;;;;;5.93;2.90;;;;;;;17.12;42.16;97739.59;5013609;28;20226;-69
2023/05/31 03:29:55;;;;;;;6.63;2.87;;;;;;;17.05;41.96;97741.31;5010303;28;20427;-71
2023/05/31 03:32:21;;;;;;;5.27;2.37;;;;;;;17.07;42.14;97743.78;5013117;28;20455;-70
2023/05/31 03:34:46;;;;;;;3.60;2.43;;;;;;;16.99;42.61;97742.03;5009948;28;20303;-69
2023/05/31 03:37:12;;;;;;;9.97;2.93;;;;;;;16.99;42.53;97742.88;5011618;28;20195;-70
2023/05/31 03:39:37;;;;;;;4.30;2.73;;;;;;;16.97;42.52;97738.75;5001753;28;20199;-71
2023/05/31 03:42:03;;;;;;;6.83;2.37;;;;;;;16.96;42.43;97748.53;5012682;28;20196;-70
2023/05/31 03:44:28;;;;;;;5.30;2.77;;;;;;;16.88;42.72;97738.00;5012172;28;20197;-71
2023/05/31 03:46:54;;;;;;;4.00;2.30;;;;;;;16.91;42.51;97737.59;5016068;28;20798;-70
2023/05/31 03:49:19;;;;;;;5.40;2.33;;;;;;;16.91;42.52;97736.78;5012991;28;20862;-70
2023/05/31 03:51:45;;;;;;;10.40;2.93;;;;;;;16.85;42.96;97746.28;5015375;28;20281;-71
2023/05/31 03:54:10;;;;;;;5.70;3.27;;;;;;;16.83;43.14;97737.69;5013035;28;20311;-71
2023/05/31 03:56:36;;;;;;;3.60;2.70;;;;;;;16.87;43.07;97744.28;5011499;28;20219;-70
2023/05/31 03:59:02;;;;;;;6.50;3.10;;;;;;;16.83;43.27;97741.16;5014260;28;20331;-71
2023/05/31 04:01:27;;;;;;;4.00;2.80;;;;;;;16.77;43.13;97736.59;5008420;28;20185;-70
2023/05/31 04:03:53;;;;;;;4.63;2.33;;;;;;;16.80;43.15;97746.81;5008279;28;20448;-71
2023/05/31 04:06:18;;;;;;;4.60;2.57;;;;;;;16.79;43.40;97752.28;5009532;28;20240;-71
2023/05/31 04:08:44;;;;;;;5.03;2.70;;;;;;;16.82;42.92;97751.91;5013621;28;20195;-70
2023/05/31 04:11:09;;;;;;;4.30;2.70;;;;;;;16.77;43.73;97759.56;5014246;28;20866;-71
2023/05/31 04:13:34;;;;;;;4.67;3.33;;;;;;;16.80;43.49;97751.28;5019311;28;20204;-70
2023/05/31 04:16:00;;;;;;;6.33;2.77;;;;;;;16.85;43.52;97751.56;5008516;28;20203;-71
2023/05/31 04:18:25;;;;;;;7.70;2.93;;;;;;;16.92;43.62;97752.50;5014859;28;20176;-72
2023/05/31 04:20:51;;;;;;;7.93;3.30;;;;;;;16.92;44.42;97755.13;5006474;28;20706;-71
2023/05/31 04:23:16;;;;;;;4.10;3.07;;;;;;;16.92;44.39;97756.97;5007811;28;20207;-72
2023/05/31 04:25:44;;;;;;;7.03;2.90;;;;;;;17.00;44.12;97759.56;5013711;28;20645;-72
2023/05/31 04:28:11;;;;;;;7.10;3.53;;;;;;;17.06;44.06;97763.31;5009361;28;20188;-71
2023/05/31 04:30:37;;;;;;;6.00;3.10;;;;;;;17.04;44.53;97763.50;5007646;28;21222;-73
2023/05/31 04:33:04;;;;;;;4.10;3.10;;;;;;;17.08;44.58;97767.44;5015630;28;20485;-71
2023/05/31 04:35:30;;;;;;;6.37;3.23;;;;;;;17.13;44.40;97774.84;5010540;28;20556;-72
2023/05/31 04:37:59;;;;;;;6.03;3.30;;;;;;;17.18;43.79;97767.16;5008414;28;20470;-71
2023/05/31 04:40:27;;;;;;;6.30;3.60;;;;;;;17.20;43.44;97770.47;5011577;28;20446;-71
2023/05/31 04:42:53;;;;;;;5.77;2.80;;;;;;;17.24;44.52;97777.06;5017327;28;20450;-71
2023/05/31 04:45:18;;;;;;;7.90;3.60;;;;;;;17.34;43.04;97772.31;5004793;28;20446;-72
2023/05/31 04:47:46;;;;;;;7.87;3.20;;;;;;;17.37;43.50;97778.25;5011110;28;20319;-70
2023/05/31 04:50:11;;;;;;;10.70;3.33;;;;;;;17.38;44.24;97772.75;5009617;28;20216;-71
2023/05/31 04:52:39;;;;;;;5.03;3.10;;;;;;;17.47;43.87;97776.16;5011768;28;20596;-70
2023/05/31 04:55:06;;;;;;;3.70;2.33;;;;;;;17.49;43.03;97774.16;5009158;28;20207;-70
2023/05/31 04:57:32;;;;;;;7.53;2.53;;;;;;;17.61;43.35;97780.63;5011207;28;20462;-72
2023/05/31 04:59:57;;;;;;;7.33;2.90;;;;;;;17.68;42.36;97779.88;5020288;28;20448;-71
2023/05/31 05:02:23;;;;;;;3.30;2.47;;;;;;;17.72;42.14;97786.47;5007734;28;20452;-72
2023/05/31 05:04:48;;;;;;;4.33;2.70;;;;;;;17.75;41.43;97773.66;5008621;28;20276;-72
2023/05/31 05:07:15;;;;;;;4.70;2.80;;;;;;;17.81;40.92;97777.41;5007905;28;20188;-71
2023/05/31 05:09:40;;;;;;;3.63;2.70;;;;;;;17.90;41.06;97781.59;5009364;28;20650;-69
2023/05/31 05:12:06;;;;;;;6.07;2.80;;;;;;;17.98;40.05;97782.53;5008789;28;20530;-71
2023/05/31 05:14:32;;;;;;;12.63;2.80;;;;;;;18.06;40.16;97788.56;5013124;28;20204;-73
2023/05/31 05:16:57;;;;;;;3.93;2.30;;;;;;;18.16;39.11;97782.94;5007876;28;20419;-71
2023/05/31 05:19:23;;;;;;;3.70;2.43;;;;;;;18.27;39.13;97781.66;5013988;28;20274;-72
2023/05/31 05:21:48;;;;;;;4.07;1.83;;;;;;;18.38;38.67;97785.66;5008327;28;20315;-71
2023/05/31 05:24:15;;;;;;;3.93;2.50;;;;;;;18.49;38.96;97779.00;5012387;28;20544;-71
2023/05/31 05:26:40;;;;;;;4.70;2.63;;;;;;;18.60;37.69;97786.47;5014769;28;20271;-73
2023/05/31 05:29:06;;;;;;;4.17;2.53;;;;;;;18.73;37.48;97788.44;5004883;28;20518;-71
2023/05/31 05:31:31;;;;;;;3.60;2.83;;;;;;;18.87;37.26;97797.31;5007563;28;20223;-70
2023/05/31 05:33:57;;;;;;;4.10;2.50;;;;;;;18.99;37.57;97789.72;5006497;28;20208;-71
2023/05/31 05:36:22;;;;;;;7.00;2.40;;;;;;;19.09;36.17;97790.19;5011877;28;20331;-71
2023/05/31 05:38:48;;;;;;;5.30;2.30;;;;;;;19.22;36.41;97784.13;5010490;28;20188;-71
2023/05/31 05:41:13;;;;;;;6.03;2.70;;;;;;;19.36;35.98;97784.22;5013224;28;20657;-71
2023/05/31 05:43:39;;;;;;;3.43;2.27;;;;;;;19.48;36.26;97782.66;5017374;28;20211;-72
2023/05/31 05:46:05;;;;;;;4.97;2.33;;;;;;;19.59;36.01;97783.97;5016647;28;20540;-70
2023/05/31 05:48:30;;;;;;;4.60;2.60;;;;;;;19.71;35.60;97782.41;5015494;28;20195;-69
2023/05/31 05:50:55;;;;;;;3.37;2.10;;;;;;;19.86;34.92;97782.28;5008052;28;20563;-71
2023/05/31 05:53:21;;;;;;;7.47;2.70;;;;;;;20.00;34.63;97785.00;5017128;28;20677;-71
2023/05/31 05:55:53;;;;;;;4.00;2.37;;;;;;;20.13;34.65;97785.06;5008338;28;20188;-70
2023/05/31 05:58:19;;;;;;;9.60;2.43;;;;;;;20.27;34.51;97777.94;5016723;28;20246;-71
2023/05/31 06:00:48;;;;;;;5.80;2.63;;;;;;;20.40;32.82;97779.81;5023359;28;20924;-70
2023/05/31 06:03:14;;;;;;;5.83;2.50;;;;;;;20.53;32.97;97784.34;5023247;28;20207;-70
2023/05/31 06:05:43;;;;;;;5.30;2.53;;;;;;;20.64;33.16;97786.41;5016369;28;20451;-71
2023/05/31 06:08:11;;;;;;;7.60;2.33;;;;;;;20.72;32.60;97783.53;5011379;28;20904;-71
2023/05/31 06:10:37;;;;;;;5.07;2.30;;;;;;;20.81;31.78;97783.38;5003720;28;20419;-70
2023/05/31 06:13:03;;;;;;;3.00;2.20;;;;;;;20.89;31.85;97783.19;5011657;28;20827;-71
2023/05/31 06:15:28;;;;;;;6.33;2.30;;;;;;;20.99;32.01;97783.59;5013782;28;20192;-70
2023/05/31 06:17:53;;;;;;;8.27;2.90;;;;;;;21.08;32.23;97783.38;5017660;28;20692;-71
2023/05/31 06:20:19;;;;;;;5.60;2.50;;;;;;;21.18;31.94;97781.09;5014865;28;20757;-71
2023/05/31 06:22:44;;;;;;;4.57;2.50;;;;;;;21.25;31.47;97776.59;5012175;28;20208;-69
2023/05/31 06:25:10;;;;;;;5.90;2.43;;;;;;;21.33;31.29;97773.72;5021953;28;20201;-70
2023/05/31 06:27:36;;;;;;;6.73;2.37;;;;;;;21.44;31.56;97780.25;5011298;28;20196;-71
2023/05/31 06:30:02;;;;;;;12.27;2.80;;;;;;;21.61;31.86;97783.31;5016442;28;20199;-71
2023/05/31 06:32:28;;;;;;;3.00;2.20;;;;;;;21.75;31.66;97780.63;5012521;28;20622;-71
2023/05/31 06:34:53;;;;;;;6.93;2.57;;;;;;;21.82;30.98;97775.25;5021204;28;20454;-72
2023/05/31 06:37:21;;;;;;;5.50;2.60;;;;;;;21.96;30.94;97776.00;5016528;28;20412;-71
2023/05/31 06:39:47;;;;;;;7.70;2.67;;;;;;;22.08;31.14;97774.31;5009922;28;20188;-70
2023/05/31 06:42:13;;;;;;;5.57;2.90;;;;;;;22.21;30.57;97774.25;5019419;28;20446;-71
2023/05/31 06:44:40;;;;;;;5.17;2.50;;;;;;;22.30;30.46;97776.69;4994478;28;20519;-70
2023/05/31 06:47:06;;;;;;;4.87;2.23;;;;;;;22.41;30.55;97778.72;5015165;28;20510;-70
2023/05/31 06:49:31;;;;;;;4.17;2.23;;;;;;;22.52;30.99;97780.69;5018619;28;20428;-69
2023/05/31 06:51:57;;;;;;;3.80;2.40;;;;;;;22.60;29.82;97776.94;5010616;28;20288;-70
2023/05/31 06:54:23;;;;;;;4.07;2.70;;;;;;;22.68;30.09;97765.19;5011467;28;20203;-70
2023/05/31 06:56:48;;;;;;;3.67;2.57;;;;;;;22.80;30.05;97765.28;5014493;28;20188;-69
2023/05/31 06:59:14;;;;;;;4.30;2.70;;;;;;;22.89;30.07;97771.19;5010904;28;20231;-70
2023/05/31 07:01:39;;;;;;;12.13;2.87;;;;;;;22.95;29.80;97770.28;5020379;28;20239;-71
2023/05/31 07:04:04;;;;;;;4.87;2.33;;;;;;;23.05;29.67;97767.97;5010409;28;20715;-73
2023/05/31 07:06:31;;;;;;;10.10;2.60;;;;;;;23.11;29.65;97766.28;5014720;28;20259;-72
2023/05/31 07:08:57;;;;;;;5.60;2.30;;;;;;;23.24;29.86;97770.69;5010090;28;20226;-71
2023/05/31 07:11:23;;;;;;;7.60;2.53;;;;;;;23.36;29.61;97762.78;5011075;28;20431;-72
2023/05/31 07:13:48;;;;;;;6.03;2.40;;;;;;;23.46;29.32;97760.41;5021785;28;20455;-69
2023/05/31 07:16:14;;;;;;;6.33;2.63;;;;;;;23.56;28.80;97762.56;5018556;28;20739;-71
2023/05/31 07:18:39;;;;;;;4.83;2.70;;;;;;;23.65;29.28;97768.41;5015128;28;20199;-69
2023/05/31 07:21:05;;;;;;;7.63;2.57;;;;;;;23.63;28.54;97764.09;5017679;28;20210;-70
2023/05/31 07:23:30;;;;;;;5.33;2.83;;;;;;;23.69;28.77;97762.38;5012793;28;20250;-72
2023/05/31 07:25:57;;;;;;;6.00;2.70;;;;;;;23.76;28.85;97757.78;5017078;28;20656;-71
2023/05/31 07:28:22;;;;;;;4.53;2.50;;;;;;;23.79;28.57;97756.53;5010921;28;20195;-71
2023/05/31 07:30:48;;;;;;;6.13;2.60;;;;;;;23.87;28.68;97752.72;5017792;28;20435;-70
2023/05/31 07:33:13;;;;;;;5.83;2.70;;;;;;;23.98;28.75;97754.66;5011519;28;20243;-69
2023/05/31 07:35:39;;;;;;;5.73;2.57;;;;;;;24.10;28.38;97751.22;5015277;28;20669;-70
2023/05/31 07:38:04;;;;;;;4.90;2.40;;;;;;;24.21;28.92;97747.78;5012619;28;20177;-71
2023/05/31 07:40:30;;;;;;;4.07;2.33;;;;;;;24.30;28.15;97751.78;5014447;28;20210;-71
2023/05/31 07:42:56;;;;;;;10.40;3.17;;;;;;;24.40;28.15;97748.53;5011466;28;20262;-72
2023/05/31 07:45:21;;;;;;;5.30;2.70;;;;;;;24.53;27.89;97750.22;5010873;28;20423;-71
2023/05/31 07:47:47;;;;;;;6.63;2.70;;;;;;;24.68;28.05;97737.22;5013925;28;20303;-69
2023/05/31 07:50:12;;;;;;;4.60;2.50;;;;;;;24.79;28.40;97742.84;5019105;28;20190;-70
2023/05/31 07:52:38;;;;;;;5.60;2.50;;;;;;;24.82;28.12;97745.06;5009176;28;20235;-71
2023/05/31 07:55:03;;;;;;;5.83;2.53;;;;;;;24.69;27.28;97746.91;5010932;28;20205;-71
2023/05/31 07:57:29;;;;;;;4.10;2.40;;;;;;;24.80;27.75;97739.13;5016750;28;20203;-70
2023/05/31 07:59:55;;;;;;;5.13;3.00;;;;;;;25.01;28.26;97743.09;5016853;28;20184;-71
2023/05/31 08:02:20;;;;;;;5.23;2.60;;;;;;;25.11;27.79;97745.19;5009932;28;20688;-72
2023/05/31 08:04:45;;;;;;;4.10;2.40;;;;;;;25.15;27.03;97740.97;5020670;28;20279;-71
2023/05/31 08:07:11;;;;;;;7.33;2.60;;;;;;;25.12;26.74;97744.97;5011565;28;20268;-72
2023/05/31 08:09:36;;;;;;;4.93;2.63;;;;;;;25.28;27.35;97740.75;5021255;28;20238;-71
2023/05/31 08:12:02;;;;;;;6.00;2.77;;;;;;;25.34;27.02;97739.00;5016163;28;20657;-72
2023/05/31 08:14:28;;;;;;;3.47;2.27;;;;;;;25.51;27.26;97727.56;5016030;28;20290;-73
2023/05/31 08:16:54;;;;;;;9.43;2.70;;;;;;;25.51;27.12;97733.75;5016703;28;20476;-70
2023/05/31 08:19:19;;;;;;;7.00;2.80;;;;;;;25.47;27.07;97732.56;5021964;28;20218;-71
2023/05/31 08:21:46;;;;;;;4.83;2.50;;;;;;;25.70;26.57;97737.09;5008449;28;20637;-72
2023/05/31 08:24:12;;;;;;;4.67;2.50;;;;;;;25.88;26.83;97728.03;5015103;28;20258;-72
2023/05/31 08:26:37;;;;;;;9.30;2.50;;;;;;;26.07;26.99;97733.25;5013399;28;20470;-71
2023/05/31 08:29:03;;;;;;;5.90;2.50;;;;;;;26.22;26.64;97730.03;5015983;28;20809;-71
2023/05/31 08:31:28;;;;;;;3.63;2.97;;;;;;;26.41;26.68;97743.25;5018558;28;20191;-71
2023/05/31 08:33:58;;;;;;;4.57;2.50;;;;;;;26.55;26.19;97733.03;5008072;28;20291;-72
2023/05/31 08:36:25;;;;;;;6.17;2.37;;;;;;;26.64;25.76;97742.31;5016998;28;20199;-71
2023/05/31 08:38:50;;;;;;;4.03;2.37;;;;;;;26.66;25.95;97737.50;5017130;28;20436;-71
2023/05/31 08:41:17;;;;;;;6.13;2.60;;;;;;;26.63;25.71;97737.97;5015606;28;20777;-73
2023/05/31 08:43:42;;;;;;;7.73;2.77;;;;;;;26.56;25.45;97731.97;5011894;28;20729;-71
2023/05/31 08:46:08;;;;;;;6.53;2.70;;;;;;;26.71;25.38;97726.00;5015340;28;20467;-71
2023/05/31 08:48:39;;;;;;;9.63;2.77;;;;;;;26.87;25.95;97722.53;5013135;28;20565;-72
2023/05/31 08:51:06;;;;;;;4.53;2.27;;;;;;;26.81;25.59;97729.72;5020830;28;20687;-71
2023/05/31 08:53:33;;;;;;;8.83;2.90;;;;;;;26.75;25.10;97736.03;5017474;28;20982;-71
2023/05/31 08:56:01;;;;;;;4.20;2.73;;;;;;;26.79;25.73;97723.78;5014874;28;20439;-73
2023/05/31 08:58:28;;;;;;;6.83;2.70;;;;;;;26.96;26.33;97725.63;5009859;28;20913;-70
2023/05/31 09:00:53;;;;;;;8.03;2.77;;;;;;;27.18;25.87;97724.88;5015716;28;20434;-72
2023/05/31 09:03:19;;;;;;;5.50;2.60;;;;;;;27.41;25.77;97716.56;5008089;28;20455;-72
2023/05/31 09:05:44;;;;;;;5.40;2.80;;;;;;;27.57;24.90;97709.53;5013265;28;20535;-72
2023/05/31 09:08:11;;;;;;;6.40;2.70;;;;;;;27.74;24.57;97712.16;5011621;28;20180;-71
2023/05/31 09:10:36;;;;;;;9.43;2.70;;;;;;;27.97;24.62;97722.91;5008941;28;20789;-71
2023/05/31 09:13:02;;;;;;;12.53;3.73;;;;;;;27.93;24.24;97709.13;5008489;28;20513;-73
2023/05/31 09:15:28;;;;;;;6.60;2.57;;;;;;;28.02;24.38;97707.59;5009469;28;20342;-70
2023/05/31 09:17:55;;;;;;;6.10;2.77;;;;;;;28.10;24.36;97713.66;5021485;28;20455;-72
2023/05/31 09:20:30;;;;;;;3.50;2.40;;;;;;;28.10;24.15;97709.06;5016575;28;20195;-72
2023/05/31 09:22:55;;;;;;;3.80;2.67;;;;;;;28.19;24.32;97717.50;5019349;28;20990;-72
2023/05/31 09:25:21;;;;;;;6.43;3.40;;;;;;;28.12;23.46;97714.19;5010810;28;20519;-71
2023/05/31 09:27:46;;;;;;;9.90;2.67;;;;;;;28.30;24.45;97713.84;5011214;28;20198;-71
2023/05/31 09:30:13;;;;;;;4.63;2.60;;;;;;;28.07;23.30;97723.00;5022528;28;20218;-71
2023/05/31 09:32:40;;;;;;;5.37;2.70;;;;;;;28.10;23.68;97727.13;5008279;28;20262;-72
2023/05/31 09:35:12;;;;;;;4.23;2.40;;;;;;;28.24;23.64;97712.16;5015365;28;20462;-71
2023/05/31 09:37:44;;;;;;;5.23;2.53;;;;;;;28.44;23.81;97710.72;5009575;28;20455;-71
2023/05/31 09:40:13;;;;;;;7.83;3.40;;;;;;;28.44;23.07;97713.41;5008113;28;20427;-71
2023/05/31 09:42:38;;;;;;;5.83;2.60;;;;;;;28.56;22.57;97715.94;5010133;28;20462;-71
2023/05/31 09:45:05;;;;;;;5.63;2.80;;;;;;;28.32;22.04;97724.34;5014538;28;20430;-71
2023/05/31 09:47:31;;;;;;;5.23;2.53;;;;;;;28.44;22.36;97722.31;5009232;28;20284;-72
2023/05/31 09:49:56;;;;;;;8.27;2.10;;;;;;;28.56;22.24;97708.66;5007673;28;21185;-72
2023/05/31 09:52:30;;;;;;;6.80;2.80;;;;;;;28.34;21.63;97703.34;5007893;28;20628;-73
2023/05/31 09:54:59;;;;;;;3.50;2.27;;;;;;;28.60;22.71;97709.78;5011738;28;20211;-71
2023/05/31 09:57:40;;;;;;;5.63;2.50;;;;;;;28.87;22.68;97700.81;5007114;28;20470;-71
2023/05/31 10:00:17;;;;;;;15.13;3.00;;;;;;;29.04;21.62;97697.16;5004963;28;20423;-70
2023/05/31 10:02:53;;;;;;;7.80;2.40;;;;;;;29.09;22.44;97699.91;5018060;28;20522;-71
2023/05/31 10:05:20;;;;;;;5.70;2.90;;;;;;;29.10;21.62;97688.84;5016748;28;20476;-70
2023/05/31 10:07:50;;;;;;;4.53;2.73;;;;;;;29.25;22.16;97687.31;5008019;28;20784;-72
2023/05/31 10:10:22;;;;;;;10.60;3.43;;;;;;;28.86;21.63;97684.91;5007926;28;21006;-70
2023/05/31 10:12:47;;;;;;;5.50;2.60;;;;;;;29.09;22.15;97694.50;5007239;28;20435;-71
2023/05/31 10:15:16;;;;;;;6.07;2.90;;;;;;;29.40;22.43;97694.69;5009600;28;21027;-71
2023/05/31 10:18:01;;;;;;;8.40;2.80;;;;;;;29.49;21.89;97690.38;5020134;28;20187;-72
2023/05/31 10:20:38;;;;;;;7.93;2.57;;;;;;;29.48;20.52;97686.09;5004159;28;20423;-70
2023/05/31 10:23:08;;;;;;;11.73;2.50;;;;;;;29.42;20.83;97681.75;5019814;28;20461;-71
2023/05/31 10:25:56;;;;;;;4.00;2.27;;;;;;;29.35;20.64;97676.56;5007955;28;21136;-72
2023/05/31 10:28:27;;;;;;;6.00;2.37;;;;;;;29.31;21.36;97688.94;5007740;28;20841;-71
2023/05/31 10:30:54;;;;;;;4.27;2.53;;;;;;;29.20;20.42;97682.69;5018065;28;20434;-71
2023/05/31 10:33:20;;;;;;;7.27;2.33;;;;;;;29.46;20.82;97682.00;5011978;28;20435;-71
2023/05/31 10:35:46;;;;;;;4.83;2.30;;;;;;;29.47;20.34;97683.63;5009810;28;20837;-70
2023/05/31 10:38:12;;;;;;;3.70;2.50;;;;;;;29.54;20.80;97684.22;5013053;28;20419;-71
2023/05/31 10:40:43;;;;;;;4.67;2.67;;;;;;;29.68;20.48;97674.53;5007219;28;20184;-70
2023/05/31 10:43:16;;;;;;;6.10;2.60;;;;;;;29.90;20.77;97676.22;4990003;28;20833;-71
2023/05/31 10:45:51;;;;;;;6.73;2.50;;;;;;;29.99;19.74;97663.03;5015805;28;21134;-71
2023/05/31 10:48:26;;;;;;;7.03;2.47;;;;;;;30.08;19.88;97661.41;5015080;28;20469;-71
2023/05/31 10:50:51;;;;;;;4.60;2.07;;;;;;;30.26;20.05;97670.06;5016690;28;21036;-70
2023/05/31 10:53:16;;;;;;;6.63;2.03;;;;;;;30.19;19.30;97668.47;5013093;28;20562;-71
2023/05/31 10:55:43;;;;;;;7.53;2.50;;;;;;;30.38;19.89;97673.31;5015290;28;20188;-70
2023/05/31 10:58:26;;;;;;;4.77;2.47;;;;;;;30.52;19.68;97678.19;5016977;28;20184;-72
2023/05/31 11:00:54;;;;;;;7.70;2.20;;;;;;;30.32;19.16;97672.50;5015195;28;20418;-70
2023/05/31 11:03:24;;;;;;;3.67;2.60;;;;;;;30.28;19.64;97666.03;5020500;28;20446;-72
2023/05/31 11:05:59;;;;;;;8.13;2.80;;;;;;;30.35;19.30;97665.78;5017213;28;20918;-72
2023/05/31 11:08:26;;;;;;;5.10;2.83;;;;;;;30.51;20.12;97661.16;5017912;28;20419;-71
2023/05/31 11:10:51;;;;;;;4.00;2.43;;;;;;;30.43;19.28;97654.41;5018442;28;20431;-70
2023/05/31 11:13:18;;;;;;;4.10;2.10;;;;;;;30.52;19.40;97670.06;5010280;28;20439;-70
2023/05/31 11:15:45;;;;;;;2.57;1.90;;;;;;;30.59;19.98;97665.25;5013374;28;20709;-74
2023/05/31 11:18:24;;;;;;;3.07;2.13;;;;;;;30.68;18.93;97668.22;5022393;28;20434;-72
2023/05/31 11:20:50;;;;;;;4.50;2.30;;;;;;;30.77;19.14;97659.25;5017712;28;20514;-71
2023/05/31 11:23:18;;;;;;;5.13;2.40;;;;;;;30.61;19.19;97668.50;5022440;28;20452;-71
2023/05/31 11:25:44;;;;;;;3.90;2.57;;;;;;;30.48;18.84;97653.59;5012806;28;20695;-72
2023/05/31 11:28:10;;;;;;;6.97;2.37;;;;;;;30.60;19.75;97661.47;5009017;28;20463;-70
2023/05/31 11:30:36;;;;;;;4.77;2.40;;;;;;;30.68;19.19;97660.09;5010340;28;20275;-71
2023/05/31 11:33:02;;;;;;;3.13;2.07;;;;;;;30.76;19.67;97657.63;5010423;28;20262;-71